Aeroporto :
LOGIN :

Iscrizione | Disclaimer

   EN    FR    IT 

 










Sommario :    VFR   VFR Marginale   IFR   IFR Intensivo   IFR Molto Intensivo
Visibilità : 
Base nubi : 
>= 8 km
>= 3000ft
5 / 8 km
1000 / 3000 ft
1500m / 5 km
500 / 1000 ft
800 / 1500m
200 / 500 ft
< 800m
< 200 ft
Simboli :   Temporali  Nebbia  Neve Forte  Precipitazioni Forti  Vento > 20 kt
SIGMETs :   Varie  Temporali  Ghiacco  Turbolenza  Onda orograficha  Ceneri Vulcaniche






- Altitudine del aeroporto : 1830 ft


EBLB - Butgenbach Elsenborn

ULTIMO METAR :
  • 230225Z AUTO 10005KT 0250 FG OVC002/// M00/M00 Q1032 RED

METARs OBSOLETI :
  • 230155Z AUTO 10006KT 0400 FG OVC002/// 00/00 Q1033 RED
  • 230136Z AUTO 10006KT 0700 FG OVC002/// 00/00 Q1033 RED
  • 230125Z AUTO 10005KT 0900 BR OVC003/// 00/00 Q1033 AMB
  • 230103Z AUTO 10006KT 5000 OVC002/// 01/01 Q1033 AMB
  • 230025Z AUTO 08007KT 9999 OVC005/// 01/01 Q1034 YLO
  • 222355Z AUTO 08007KT 9999 OVC004/// 01/01 Q1034 YLO

Previsioni scadute.



MetMap, La meteo Aeronautica in un colpo d'occhio ! - Copyright ORBIFLY Dicembre 2007 - Disclaimer

ORBIFLY MET'MAP TEAM :

Programmazione e sviluppo : Alexandra Zaïnal
Concezione : Baudouin d'Aumeries
Aiuto per la programmazione : Marc-Olivier Méhu
Supporto tecnico e logistico : Manuel Goepfert
Aiuto per la traduzione : Arnaldo La Scala

Contatto : metmap@orbifly.com




FONTI E CREDITI :

   NOAA